Time,TemperatureF,DewpointF,PressureIn,WindDirection,WindDirectionDegrees,WindSpeedMPH,WindSpeedGustMPH,Humidity,HourlyPrecipIn,Conditions,Clouds,dailyrainin,SoftwareType,DateUTC
2013-05-26 00:02:00,49.0,47.0,-100.00,NE,55,2.0,4.0,94,-99.99,,,-99.99,,2013-05-26 05:02:00,
2013-05-26 00:12:00,49.0,47.0,-100.00,NE,45,4.0,5.0,94,-99.99,,,-99.99,,2013-05-26 05:12:00,
2013-05-26 00:22:00,49.0,47.0,-100.00,NE,45,4.0,5.0,94,-99.99,,,-99.99,,2013-05-26 05:22:00,
2013-05-26 00:32:00,48.0,47.0,-100.00,ENE,70,3.0,5.0,95,-99.99,,,-99.99,,2013-05-26 05:32:00,
2013-05-26 00:42:00,48.0,47.0,-100.00,ENE,65,1.0,5.0,95,-99.99,,,-99.99,,2013-05-26 05:42:00,
2013-05-26 00:52:00,48.0,47.0,-100.00,ENE,65,1.0,5.0,95,-99.99,,,-99.99,,2013-05-26 05:52:00,
2013-05-26 01:01:00,49.0,47.0,-100.00,ENE,70,0.0,2.0,95,-99.99,,,-99.99,,2013-05-26 06:01:00,
2013-05-26 01:12:00,48.0,47.0,-100.00,East,80,0.0,4.0,95,-99.99,,,-99.99,,2013-05-26 06:12:00,
2013-05-26 01:22:00,48.0,47.0,-100.00,East,80,0.0,4.0,95,-99.99,,,-99.99,,2013-05-26 06:22:00,
2013-05-26 01:32:00,48.0,47.0,-100.00,ENE,75,1.0,4.0,95,-99.99,,,-99.99,,2013-05-26 06:32:00,
2013-05-26 01:42:00,49.0,47.0,-100.00,ENE,70,1.0,4.0,95,-99.99,,,-99.99,,2013-05-26 06:42:00,
2013-05-26 01:52:00,49.0,47.0,-100.00,ENE,70,1.0,4.0,95,-99.99,,,-99.99,,2013-05-26 06:52:00,
2013-05-26 02:01:00,48.0,47.0,-100.00,ENE,65,1.0,4.0,95,-99.99,,,-99.99,,2013-05-26 07:01:00,
2013-05-26 02:11:00,48.0,47.0,-100.00,ENE,75,3.0,4.0,95,-99.99,,,-99.99,,2013-05-26 07:11:00,
2013-05-26 02:22:00,48.0,47.0,-100.00,ENE,75,3.0,4.0,95,-99.99,,,-99.99,,2013-05-26 07:22:00,
2013-05-26 02:31:00,48.0,47.0,-100.00,East,80,0.0,1.0,95,-99.99,,,-99.99,,2013-05-26 07:31:00,
2013-05-26 02:42:00,48.0,47.0,-100.00,ESE,105,1.0,4.0,96,-99.99,,,-99.99,,2013-05-26 07:42:00,
2013-05-26 02:52:00,48.0,47.0,-100.00,ESE,105,1.0,4.0,96,-99.99,,,-99.99,,2013-05-26 07:52:00,
2013-05-26 03:01:00,48.0,47.0,-100.00,ENE,75,2.0,5.0,96,-99.99,,,-99.99,,2013-05-26 08:01:00,
2013-05-26 03:12:00,48.0,47.0,-100.00,East,80,2.0,5.0,96,-99.99,,,-99.99,,2013-05-26 08:12:00,
2013-05-26 03:21:00,48.0,47.0,-100.00,East,80,2.0,5.0,96,-99.99,,,-99.99,,2013-05-26 08:21:00,
2013-05-26 03:32:00,48.0,47.0,-100.00,NE,55,1.0,4.0,96,-99.99,,,-99.99,,2013-05-26 08:32:00,
2013-05-26 03:42:00,48.0,47.0,-100.00,NE,50,3.0,6.0,96,-99.99,,,-99.99,,2013-05-26 08:42:00,
2013-05-26 03:53:00,48.0,47.0,-100.00,NE,50,3.0,6.0,96,-99.99,,,-99.99,,2013-05-26 08:53:00,
2013-05-26 04:01:00,47.0,46.0,-100.00,NE,55,0.0,4.0,96,-99.99,,,-99.99,,2013-05-26 09:01:00,
2013-05-26 04:11:00,47.0,46.0,-100.00,ENE,60,3.0,4.0,96,-99.99,,,-99.99,,2013-05-26 09:11:00,
2013-05-26 04:21:00,47.0,46.0,-100.00,ENE,60,3.0,4.0,96,-99.99,,,-99.99,,2013-05-26 09:21:00,
2013-05-26 04:33:00,47.0,46.0,-100.00,East,95,0.0,5.0,96,-99.99,,,-99.99,,2013-05-26 09:33:00,
2013-05-26 04:42:00,48.0,47.0,-100.00,ENE,65,3.0,6.0,96,-99.99,,,-99.99,,2013-05-26 09:42:00,
2013-05-26 04:53:00,48.0,47.0,-100.00,ENE,65,3.0,6.0,96,-99.99,,,-99.99,,2013-05-26 09:53:00,
2013-05-26 05:02:00,48.0,47.0,-100.00,ENE,70,3.0,8.0,96,-99.99,,,-99.99,,2013-05-26 10:02:00,
2013-05-26 05:12:00,48.0,47.0,-100.00,ENE,65,3.0,8.0,96,-99.99,,,-99.99,,2013-05-26 10:12:00,
2013-05-26 05:23:00,48.0,47.0,-100.00,ENE,65,3.0,8.0,96,-99.99,,,-99.99,,2013-05-26 10:23:00,
2013-05-26 05:33:00,48.0,47.0,-100.00,ENE,65,4.0,6.0,96,-99.99,,,-99.99,,2013-05-26 10:33:00,
2013-05-26 05:42:00,48.0,46.0,-100.00,ENE,75,7.0,11.0,94,-99.99,,,-99.99,,2013-05-26 10:42:00,
2013-05-26 05:52:00,48.0,46.0,-100.00,ENE,75,7.0,11.0,94,-99.99,,,-99.99,,2013-05-26 10:52:00,
2013-05-26 06:03:00,48.0,45.0,-100.00,ENE,75,4.0,8.0,90,-99.99,,,-99.99,,2013-05-26 11:03:00,
2013-05-26 06:11:00,48.0,45.0,-100.00,ENE,60,4.0,9.0,87,-99.99,,,-99.99,,2013-05-26 11:11:00,
2013-05-26 06:22:00,48.0,45.0,-100.00,ENE,60,4.0,9.0,87,-99.99,,,-99.99,,2013-05-26 11:22:00,
2013-05-26 06:32:00,49.0,44.0,-100.00,ENE,70,6.0,9.0,84,-99.99,,,-99.99,,2013-05-26 11:32:00,
2013-05-26 06:42:00,49.0,43.0,-100.00,ENE,65,5.0,11.0,81,-99.99,,,-99.99,,2013-05-26 11:42:00,
2013-05-26 06:52:00,49.0,43.0,-100.00,ENE,65,5.0,11.0,81,-99.99,,,-99.99,,2013-05-26 11:52:00,
2013-05-26 07:02:00,49.0,42.0,-100.00,ENE,65,4.0,9.0,77,-99.99,,,-99.99,,2013-05-26 12:02:00,
2013-05-26 07:12:00,50.0,42.0,-100.00,ENE,70,6.0,10.0,75,-99.99,,,-99.99,,2013-05-26 12:12:00,
2013-05-26 07:21:00,50.0,42.0,-100.00,ENE,70,6.0,10.0,75,-99.99,,,-99.99,,2013-05-26 12:21:00,
2013-05-26 07:32:00,50.0,42.0,-100.00,ENE,65,4.0,9.0,72,-99.99,,,-99.99,,2013-05-26 12:32:00,
2013-05-26 07:42:00,50.0,41.0,-100.00,ENE,75,4.0,9.0,71,-99.99,,,-99.99,,2013-05-26 12:42:00,
2013-05-26 07:52:00,50.0,41.0,-100.00,ENE,75,4.0,9.0,71,-99.99,,,-99.99,,2013-05-26 12:52:00,
2013-05-26 08:02:00,51.0,41.0,-100.00,ESE,110,4.0,9.0,69,-99.99,,,-99.99,,2013-05-26 13:02:00,
2013-05-26 08:11:00,51.0,41.0,-100.00,ESE,110,3.0,7.0,69,-99.99,,,-99.99,,2013-05-26 13:11:00,
2013-05-26 08:21:00,51.0,41.0,-100.00,ESE,110,3.0,7.0,69,-99.99,,,-99.99,,2013-05-26 13:21:00,
2013-05-26 08:32:00,52.0,43.0,-100.00,East,90,1.0,6.0,70,-99.99,,,-99.99,,2013-05-26 13:32:00,
2013-05-26 08:42:00,53.0,43.0,-100.00,East,95,4.0,9.0,69,-99.99,,,-99.99,,2013-05-26 13:42:00,
2013-05-26 08:52:00,53.0,43.0,-100.00,East,95,4.0,9.0,69,-99.99,,,-99.99,,2013-05-26 13:52:00,
2013-05-26 09:02:00,53.0,43.0,-100.00,ESE,115,4.0,8.0,68,-99.99,,,-99.99,,2013-05-26 14:02:00,
2013-05-26 09:11:00,54.0,43.0,-100.00,ENE,60,2.0,6.0,68,-99.99,,,-99.99,,2013-05-26 14:11:00,
2013-05-26 09:21:00,54.0,43.0,-100.00,ENE,60,2.0,6.0,68,-99.99,,,-99.99,,2013-05-26 14:21:00,
2013-05-26 09:32:00,54.0,43.0,-100.00,East,90,1.0,6.0,68,-99.99,,,-99.99,,2013-05-26 14:32:00,
2013-05-26 09:42:00,54.0,44.0,-100.00,SE,140,4.0,9.0,69,-99.99,,,-99.99,,2013-05-26 14:42:00,
2013-05-26 09:52:00,54.0,44.0,-100.00,SE,140,4.0,9.0,69,-99.99,,,-99.99,,2013-05-26 14:52:00,
2013-05-26 10:01:00,54.0,45.0,-100.00,ESE,120,4.0,8.0,71,-99.99,,,-99.99,,2013-05-26 15:01:00,
2013-05-26 10:12:00,54.0,45.0,-100.00,South,170,3.0,8.0,71,-99.99,,,-99.99,,2013-05-26 15:12:00,
2013-05-26 10:22:00,54.0,45.0,-100.00,South,170,3.0,8.0,71,-99.99,,,-99.99,,2013-05-26 15:22:00,
2013-05-26 10:33:00,54.0,45.0,-100.00,ESE,110,4.0,7.0,71,-99.99,,,-99.99,,2013-05-26 15:33:00,
2013-05-26 10:43:00,55.0,45.0,-100.00,SE,135,4.0,8.0,69,-99.99,,,-99.99,,2013-05-26 15:43:00,
2013-05-26 10:53:00,55.0,45.0,-100.00,SE,135,4.0,8.0,69,-99.99,,,-99.99,,2013-05-26 15:53:00,
2013-05-26 11:03:00,55.0,44.0,-100.00,SE,135,6.0,9.0,67,-99.99,,,-99.99,,2013-05-26 16:03:00,
2013-05-26 11:12:00,56.0,44.0,-100.00,SSE,150,7.0,13.0,65,-99.99,,,-99.99,,2013-05-26 16:12:00,
2013-05-26 11:23:00,56.0,44.0,-100.00,SSE,150,7.0,13.0,65,-99.99,,,-99.99,,2013-05-26 16:23:00,
2013-05-26 11:33:00,56.0,44.0,-100.00,SE,135,7.0,11.0,64,-99.99,,,-99.99,,2013-05-26 16:33:00,
2013-05-26 11:42:00,57.0,45.0,-100.00,SE,140,6.0,11.0,64,-99.99,,,-99.99,,2013-05-26 16:42:00,
2013-05-26 11:53:00,57.0,45.0,-100.00,SE,140,6.0,11.0,64,-99.99,,,-99.99,,2013-05-26 16:53:00,
2013-05-26 12:02:00,58.0,45.0,-100.00,SSE,150,9.0,14.0,64,-99.99,,,-99.99,,2013-05-26 17:02:00,
2013-05-26 12:11:00,59.0,47.0,-100.00,SSE,155,6.0,14.0,64,-99.99,,,-99.99,,2013-05-26 17:11:00,
2013-05-26 12:22:00,59.0,47.0,-100.00,SSE,155,6.0,14.0,64,-99.99,,,-99.99,,2013-05-26 17:22:00,
2013-05-26 12:32:00,60.0,47.0,-100.00,SE,135,9.0,14.0,63,-99.99,,,-99.99,,2013-05-26 17:32:00,
2013-05-26 12:42:00,60.0,48.0,-100.00,East,85,4.0,19.0,63,-99.99,,,-99.99,,2013-05-26 17:42:00,
2013-05-26 12:52:00,60.0,48.0,-100.00,East,85,4.0,19.0,63,-99.99,,,-99.99,,2013-05-26 17:52:00,
2013-05-26 13:01:00,60.0,47.0,-100.00,SE,140,10.0,21.0,63,-99.99,,,-99.99,,2013-05-26 18:01:00,
2013-05-26 13:12:00,59.0,49.0,-100.00,SSW,195,0.0,13.0,68,-99.99,,,-99.99,,2013-05-26 18:12:00,
2013-05-26 13:21:00,59.0,49.0,-100.00,SSW,195,0.0,13.0,68,-99.99,,,-99.99,,2013-05-26 18:21:00,
2013-05-26 13:32:00,59.0,49.0,-100.00,South,180,0.0,0.0,71,-99.99,,,-99.99,,2013-05-26 18:32:00,
2013-05-26 13:42:00,60.0,50.0,-100.00,SE,145,4.0,11.0,68,-99.99,,,-99.99,,2013-05-26 18:42:00,
2013-05-26 13:52:00,60.0,50.0,-100.00,SE,145,4.0,11.0,68,-99.99,,,-99.99,,2013-05-26 18:52:00,
2013-05-26 14:01:00,61.0,50.0,-100.00,ESE,120,8.0,12.0,67,-99.99,,,-99.99,,2013-05-26 19:01:00,
2013-05-26 14:11:00,60.0,49.0,-100.00,SSE,150,5.0,16.0,67,-99.99,,,-99.99,,2013-05-26 19:11:00,
2013-05-26 14:22:00,60.0,49.0,-100.00,SSE,150,5.0,16.0,67,-99.99,,,-99.99,,2013-05-26 19:22:00,
2013-05-26 14:32:00,60.0,50.0,-100.00,SSE,150,6.0,9.0,70,-99.99,,,-99.99,,2013-05-26 19:32:00,
2013-05-26 14:42:00,58.0,51.0,-100.00,SE,145,0.0,11.0,75,-99.99,,,-99.99,,2013-05-26 19:42:00,
2013-05-26 14:52:00,58.0,51.0,-100.00,SE,145,0.0,11.0,75,-99.99,,,-99.99,,2013-05-26 19:52:00,
2013-05-26 15:02:00,58.0,52.0,-100.00,SE,125,0.0,5.0,80,-99.99,,,-99.99,,2013-05-26 20:02:00,
2013-05-26 15:11:00,58.0,54.0,-100.00,SE,135,0.0,0.0,85,-99.99,,,-99.99,,2013-05-26 20:11:00,
2013-05-26 15:22:00,58.0,54.0,-100.00,SE,135,0.0,0.0,85,-99.99,,,-99.99,,2013-05-26 20:22:00,
2013-05-26 15:32:00,59.0,55.0,-100.00,SE,135,3.0,15.0,86,-99.99,,,-99.99,,2013-05-26 20:32:00,
2013-05-26 15:42:00,60.0,55.0,-100.00,ESE,105,4.0,13.0,83,-99.99,,,-99.99,,2013-05-26 20:42:00,
2013-05-26 15:52:00,60.0,55.0,-100.00,ESE,105,4.0,13.0,83,-99.99,,,-99.99,,2013-05-26 20:52:00,
2013-05-26 16:02:00,61.0,54.0,-100.00,SE,130,4.0,18.0,80,-99.99,,,-99.99,,2013-05-26 21:02:00,
2013-05-26 16:11:00,61.0,54.0,-100.00,SE,130,10.0,19.0,79,-99.99,,,-99.99,,2013-05-26 21:11:00,
2013-05-26 16:22:00,61.0,54.0,-100.00,SE,130,10.0,19.0,79,-99.99,,,-99.99,,2013-05-26 21:22:00,
2013-05-26 16:33:00,62.0,54.0,-100.00,ESE,115,7.0,14.0,76,-99.99,,,-99.99,,2013-05-26 21:33:00,
2013-05-26 16:43:00,62.0,54.0,-100.00,SE,125,4.0,17.0,76,-99.99,,,-99.99,,2013-05-26 21:43:00,
2013-05-26 16:53:00,62.0,54.0,-100.00,SE,125,4.0,17.0,76,-99.99,,,-99.99,,2013-05-26 21:53:00,
2013-05-26 17:03:00,62.0,54.0,-100.00,ESE,110,6.0,15.0,76,-99.99,,,-99.99,,2013-05-26 22:03:00,
2013-05-26 17:12:00,61.0,54.0,-100.00,NE,40,5.0,10.0,76,-99.99,,,-99.99,,2013-05-26 22:12:00,
2013-05-26 17:23:00,61.0,54.0,-100.00,NE,40,5.0,10.0,76,-99.99,,,-99.99,,2013-05-26 22:23:00,
2013-05-26 17:33:00,61.0,54.0,-100.00,North,0,2.0,11.0,77,-99.99,,,-99.99,,2013-05-26 22:33:00,
2013-05-26 17:42:00,59.0,54.0,-100.00,ESE,115,6.0,11.0,85,-99.99,,,-99.99,,2013-05-26 22:42:00,
2013-05-26 17:53:00,59.0,54.0,-100.00,ESE,115,6.0,11.0,85,-99.99,,,-99.99,,2013-05-26 22:53:00,
2013-05-26 18:02:00,58.0,55.0,-100.00,SE,140,9.0,23.0,89,-99.99,,,-99.99,,2013-05-26 23:02:00,
2013-05-26 18:12:00,58.0,55.0,-100.00,ESE,120,10.0,19.0,92,-99.99,,,-99.99,,2013-05-26 23:12:00,
2013-05-26 18:22:00,58.0,55.0,-100.00,ESE,120,10.0,19.0,92,-99.99,,,-99.99,,2013-05-26 23:22:00,
2013-05-26 18:32:00,58.0,55.0,-100.00,East,100,2.0,14.0,92,-99.99,,,-99.99,,2013-05-26 23:32:00,
2013-05-26 18:43:00,57.0,55.0,-100.00,East,90,6.0,11.0,93,-99.99,,,-99.99,,2013-05-26 23:43:00,
2013-05-26 18:52:00,57.0,55.0,-100.00,East,90,6.0,11.0,93,-99.99,,,-99.99,,2013-05-26 23:52:00,
2013-05-26 19:02:00,57.0,56.0,-100.00,ENE,70,5.0,10.0,94,-99.99,,,-99.99,,2013-05-27 00:02:00,
2013-05-26 19:11:00,57.0,56.0,-100.00,SE,130,6.0,13.0,95,-99.99,,,-99.99,,2013-05-27 00:11:00,
2013-05-26 19:22:00,57.0,56.0,-100.00,SE,130,6.0,13.0,95,-99.99,,,-99.99,,2013-05-27 00:22:00,
2013-05-26 19:32:00,57.0,56.0,-100.00,SE,130,6.0,13.0,95,-99.99,,,-99.99,,2013-05-27 00:32:00,
2013-05-26 19:42:00,57.0,55.0,-100.00,East,85,5.0,15.0,95,-99.99,,,-99.99,,2013-05-27 00:42:00,
2013-05-26 19:52:00,57.0,55.0,-100.00,East,85,5.0,15.0,95,-99.99,,,-99.99,,2013-05-27 00:52:00,
2013-05-26 20:01:00,57.0,56.0,-100.00,NE,45,5.0,9.0,95,-99.99,,,-99.99,,2013-05-27 01:01:00,
2013-05-26 20:11:00,57.0,55.0,-100.00,ENE,60,5.0,11.0,95,-99.99,,,-99.99,,2013-05-27 01:11:00,
2013-05-26 20:22:00,57.0,55.0,-100.00,ENE,60,5.0,11.0,95,-99.99,,,-99.99,,2013-05-27 01:22:00,
2013-05-26 20:31:00,57.0,56.0,-100.00,East,90,2.0,8.0,96,-99.99,,,-99.99,,2013-05-27 01:31:00,
2013-05-26 20:42:00,57.0,56.0,-100.00,SE,145,8.0,14.0,96,-99.99,,,-99.99,,2013-05-27 01:42:00,
2013-05-26 20:52:00,57.0,56.0,-100.00,SE,145,8.0,14.0,96,-99.99,,,-99.99,,2013-05-27 01:52:00,
2013-05-26 21:02:00,56.0,55.0,-100.00,SE,135,6.0,15.0,96,-99.99,,,-99.99,,2013-05-27 02:02:00,
2013-05-26 21:11:00,56.0,55.0,-100.00,SE,130,6.0,17.0,96,-99.99,,,-99.99,,2013-05-27 02:11:00,
2013-05-26 21:22:00,56.0,55.0,-100.00,SE,130,6.0,17.0,96,-99.99,,,-99.99,,2013-05-27 02:22:00,
2013-05-26 21:32:00,56.0,55.0,-100.00,East,80,6.0,14.0,96,-99.99,,,-99.99,,2013-05-27 02:32:00,
2013-05-26 21:42:00,56.0,55.0,-100.00,East,95,6.0,16.0,96,-99.99,,,-99.99,,2013-05-27 02:42:00,
2013-05-26 21:52:00,56.0,55.0,-100.00,East,95,6.0,16.0,96,-99.99,,,-99.99,,2013-05-27 02:52:00,
2013-05-26 22:02:00,56.0,56.0,-100.00,SE,135,9.0,14.0,97,-99.99,,,-99.99,,2013-05-27 03:02:00,
2013-05-26 22:11:00,56.0,55.0,-100.00,SE,125,4.0,11.0,97,-99.99,,,-99.99,,2013-05-27 03:11:00,
2013-05-26 22:21:00,56.0,55.0,-100.00,SE,125,4.0,11.0,97,-99.99,,,-99.99,,2013-05-27 03:21:00,
2013-05-26 22:33:00,56.0,55.0,-100.00,ESE,110,5.0,13.0,97,-99.99,,,-99.99,,2013-05-27 03:33:00,
2013-05-26 22:43:00,56.0,56.0,-100.00,SE,125,4.0,9.0,97,-99.99,,,-99.99,,2013-05-27 03:43:00,
2013-05-26 22:53:00,56.0,56.0,-100.00,SE,125,4.0,9.0,97,-99.99,,,-99.99,,2013-05-27 03:53:00,
2013-05-26 23:02:00,56.0,56.0,-100.00,ENE,75,3.0,10.0,97,-99.99,,,-99.99,,2013-05-27 04:02:00,
2013-05-26 23:12:00,56.0,56.0,-100.00,East,80,2.0,9.0,97,-99.99,,,-99.99,,2013-05-27 04:12:00,
2013-05-26 23:23:00,56.0,56.0,-100.00,East,80,2.0,9.0,97,-99.99,,,-99.99,,2013-05-27 04:23:00,
2013-05-26 23:33:00,56.0,56.0,-100.00,ENE,70,3.0,9.0,97,-99.99,,,-99.99,,2013-05-27 04:33:00,
2013-05-26 23:43:00,57.0,56.0,-100.00,ESE,115,5.0,9.0,97,-99.99,,,-99.99,,2013-05-27 04:43:00,
2013-05-26 23:52:00,57.0,56.0,-100.00,ESE,115,5.0,9.0,97,-99.99,,,-99.99,,2013-05-27 04:52:00,